Time;durP1;ratioP1;P1;durP2;ratioP2;P2;SDS_P1;SDS_P2;PMS_P1;PMS_P2;Temp;Humidity;BMP_temperature;BMP_pressure;BME280_temperature;BME280_humidity;BME280_pressure;Samples;Min_cycle;Max_cycle;Signal;HPM_P1;HPM_P2
2021/01/13 00:02:08;;;;;;;13.83;4.90;;;2.20;1.00;;;;;;5073406;28;20442;-69
2021/01/13 00:04:34;;;;;;;14.55;7.70;;;2.20;52.20;;;;;;5073355;28;20652;-69
2021/01/13 00:07:00;;;;;;;9.53;5.80;;;2.30;1.00;;;;;;5073419;28;20164;-69
2021/01/13 00:09:25;;;;;;;8.00;5.60;;;2.30;1.00;;;;;;5073349;28;20184;-68
2021/01/13 00:11:56;;;;;;;10.00;5.90;;;2.40;1.00;;;;;;5073258;28;20374;-68
2021/01/13 00:14:22;;;;;;;9.13;5.22;;;2.20;1.00;;;;;;5073200;28;20633;-69
2021/01/13 00:16:48;;;;;;;16.02;5.90;;;2.20;1.00;;;;;;5073237;28;20187;-68
2021/01/13 00:19:13;;;;;;;12.10;7.50;;;2.20;99.90;;;;;;5073125;28;20234;-68
2021/01/13 00:21:39;;;;;;;8.30;5.40;;;2.20;99.90;;;;;;5071810;28;20170;-68
2021/01/13 00:24:05;;;;;;;10.77;5.43;;;2.40;99.90;;;;;;5073595;28;20245;-69
2021/01/13 00:26:31;;;;;;;17.15;6.32;;;2.20;99.90;;;;;;5072987;28;20652;-68
2021/01/13 00:28:56;;;;;;;8.57;5.13;;;2.30;99.90;;;;;;5072953;28;20218;-69
2021/01/13 00:31:22;;;;;;;11.03;5.13;;;2.30;1.00;;;;;;5073003;28;20179;-69
2021/01/13 00:33:48;;;;;;;11.23;5.17;;;2.40;99.90;;;;;;5073253;28;20196;-69
2021/01/13 00:36:31;;;;;;;13.30;5.63;;;2.20;1.00;;;;;;5072925;28;20179;-69
2021/01/13 00:38:57;;;;;;;8.60;5.82;;;2.40;99.90;;;;;;5073036;28;20379;-69
2021/01/13 00:41:22;;;;;;;12.03;5.50;;;2.60;99.90;;;;;;5072734;28;20251;-69
2021/01/13 00:43:53;;;;;;;13.50;5.27;;;2.40;99.90;;;;;;5072810;28;20212;-68
2021/01/13 00:46:20;;;;;;;11.27;6.70;;;2.50;23.70;;;;;;5072811;28;20160;-67
2021/01/13 00:48:46;;;;;;;7.43;4.85;;;2.60;1.00;;;;;;5072591;28;20559;-69
2021/01/13 00:51:12;;;;;;;7.53;5.15;;;2.60;1.00;;;;;;5072815;28;20168;-68
2021/01/13 00:53:38;;;;;;;12.93;5.72;;;2.70;99.90;;;;;;5072685;28;20164;-69
2021/01/13 00:56:04;;;;;;;8.87;4.97;;;2.60;33.70;;;;;;5072728;28;20533;-69
2021/01/13 00:58:29;;;;;;;10.27;5.30;;;2.60;99.90;;;;;;5072737;28;20392;-68
2021/01/13 01:00:55;;;;;;;9.67;5.50;;;2.50;99.90;;;;;;5072613;28;20397;-68
2021/01/13 01:03:21;;;;;;;13.30;6.03;;;2.50;99.90;;;;;;5072573;28;20196;-68
2021/01/13 01:05:49;;;;;;;10.07;4.90;;;2.60;99.90;;;;;;5072569;28;20381;-69
2021/01/13 01:08:14;;;;;;;10.00;5.28;;;2.60;1.00;;;;;;5072552;28;20168;-69
2021/01/13 01:10:41;;;;;;;8.17;4.77;;;2.70;1.00;;;;;;5072513;28;20198;-69
2021/01/13 01:13:07;;;;;;;9.00;6.35;;;2.60;1.00;;;;;;5072511;28;20176;-68
2021/01/13 01:15:33;;;;;;;8.23;5.33;;;2.60;99.90;;;;;;5072493;28;20171;-69
2021/01/13 01:17:59;;;;;;;8.95;4.25;;;2.60;1.00;;;;;;5072503;28;20470;-68
2021/01/13 01:20:24;;;;;;;12.40;4.80;;;2.60;99.90;;;;;;5072693;28;20192;-69
2021/01/13 01:22:58;;;;;;;9.90;4.97;;;2.80;99.90;;;;;;5072392;28;20191;-69
2021/01/13 01:25:26;;;;;;;11.32;5.07;;;2.80;1.00;;;;;;5072467;28;20239;-68
2021/01/13 01:27:55;;;;;;;11.88;6.13;;;2.70;17.50;;;;;;5072738;28;20251;-68
2021/01/13 01:30:22;;;;;;;8.60;5.53;;;2.70;1.00;;;;;;5072329;28;20192;-68
2021/01/13 01:32:47;;;;;;;9.48;5.75;;;2.80;1.00;;;;;;5072641;28;20633;-69
2021/01/13 01:35:14;;;;;;;14.43;5.40;;;2.80;1.40;;;;;;5072390;28;20211;-69
2021/01/13 01:37:40;;;;;;;8.55;5.50;;;2.70;99.90;;;;;;5072463;28;20176;-69
2021/01/13 01:40:09;;;;;;;10.87;5.43;;;3.00;11.10;;;;;;5072232;28;20538;-68
2021/01/13 01:42:35;;;;;;;12.68;4.95;;;2.80;99.90;;;;;;5072200;28;20283;-69
2021/01/13 01:45:01;;;;;;;15.32;6.38;;;2.80;99.90;;;;;;5071007;28;20191;-69
2021/01/13 01:47:49;;;;;;;13.25;5.55;;;2.70;38.80;;;;;;5072262;28;20176;-69
2021/01/13 01:50:16;;;;;;;10.32;6.95;;;2.90;99.90;;;;;;5072203;28;20702;-69
2021/01/13 01:52:44;;;;;;;11.30;5.55;;;2.90;99.90;;;;;;5073850;28;20176;-69
2021/01/13 01:55:12;;;;;;;12.93;6.80;;;3.00;99.90;;;;;;5075942;28;20168;-69
2021/01/13 01:57:39;;;;;;;12.40;5.88;;;3.20;99.90;;;;;;5076121;28;20179;-69
2021/01/13 02:00:11;;;;;;;10.95;5.70;;;3.20;1.00;;;;;;5075695;28;20188;-69
2021/01/13 02:02:40;;;;;;;6.38;4.70;;;3.00;65.90;;;;;;5075701;28;20183;-69
2021/01/13 02:05:09;;;;;;;15.68;6.50;;;3.10;99.90;;;;;;5075628;28;20164;-69
2021/01/13 02:07:35;;;;;;;11.38;5.05;;;3.30;82.30;;;;;;5074728;28;20168;-69
2021/01/13 02:10:04;;;;;;;15.03;5.63;;;3.20;1.00;;;;;;5075613;28;20183;-69
2021/01/13 02:12:33;;;;;;;11.30;4.93;;;3.00;99.90;;;;;;5075460;28;20544;-69
2021/01/13 02:15:00;;;;;;;12.45;5.78;;;3.10;99.90;;;;;;5075483;28;20172;-69
2021/01/13 02:17:38;;;;;;;12.77;4.85;;;3.10;56.40;;;;;;5075520;28;20161;-69
2021/01/13 02:20:13;;;;;;;10.30;4.90;;;3.20;43.50;;;;;;5075340;28;20184;-69
2021/01/13 02:23:08;;;;;;;14.55;6.07;;;2.90;1.00;;;;;;5075317;28;20195;-69
2021/01/13 02:25:52;;;;;;;10.35;5.15;;;3.00;99.90;;;;;;5075656;28;20501;-69
2021/01/13 02:28:23;;;;;;;9.68;4.63;;;2.90;1.00;;;;;;5075638;28;20601;-68
2021/01/13 02:31:03;;;;;;;11.68;5.18;;;2.70;99.90;;;;;;5075270;28;20188;-69
2021/01/13 02:33:55;;;;;;;10.18;5.25;;;2.70;99.90;;;;;;5075212;28;20559;-69
2021/01/13 02:36:33;;;;;;;9.93;5.35;;;2.90;99.90;;;;;;5075943;28;20651;-69
2021/01/13 02:39:01;;;;;;;9.85;4.72;;;3.00;99.90;;;;;;5074970;28;20259;-69
2021/01/13 02:41:34;;;;;;;11.02;4.68;;;3.10;61.40;;;;;;5075055;28;20203;-69
2021/01/13 02:44:04;;;;;;;12.68;6.68;;;2.80;1.00;;;;;;5074944;28;20233;-68
2021/01/13 02:46:47;;;;;;;11.80;5.20;;;2.90;1.00;;;;;;5074984;28;20619;-69
2021/01/13 02:49:17;;;;;;;17.55;7.10;;;2.90;46.70;;;;;;5073455;28;20211;-68
2021/01/13 02:51:47;;;;;;;9.25;5.20;;;2.80;99.90;;;;;;5074869;28;20585;-69
2021/01/13 02:54:27;;;;;;;15.68;6.07;;;2.90;99.90;;;;;;5074752;28;20267;-69
2021/01/13 02:57:02;;;;;;;10.68;6.35;;;3.20;99.90;;;;;;5074754;28;20160;-69
2021/01/13 02:59:28;;;;;;;13.27;5.18;;;3.30;1.00;;;;;;5074636;28;20184;-69
2021/01/13 03:01:54;;;;;;;16.80;5.17;;;3.20;1.00;;;;;;5074849;28;20217;-69
2021/01/13 03:04:19;;;;;;;11.17;6.03;;;3.40;1.00;;;;;;5074441;28;20172;-69
2021/01/13 03:06:46;;;;;;;11.70;5.90;;;3.40;99.90;;;;;;5073293;28;20390;-69
2021/01/13 03:09:13;;;;;;;18.90;6.35;;;3.40;99.90;;;;;;5074458;28;20184;-69
2021/01/13 03:11:40;;;;;;;14.85;5.47;;;3.30;99.90;;;;;;5074790;28;20688;-69
2021/01/13 03:14:12;;;;;;;10.98;5.15;;;3.20;1.00;;;;;;5074793;28;20625;-68
2021/01/13 03:17:08;;;;;;;14.05;6.30;;;3.30;1.00;;;;;;5074595;28;20168;-69
2021/01/13 03:20:25;;;;;;;11.15;5.80;;;3.20;1.00;;;;;;5074440;28;20184;-69
2021/01/13 03:23:09;;;;;;;11.88;6.47;;;3.60;1.00;;;;;;5074280;28;20271;-69
2021/01/13 03:25:54;;;;;;;9.38;5.50;;;3.60;99.90;;;;;;5074899;28;20616;-69
2021/01/13 03:28:31;;;;;;;12.13;5.55;;;3.20;99.90;;;;;;5075746;28;20201;-69
2021/01/13 03:30:58;;;;;;;11.82;5.90;;;3.10;1.00;;;;;;5074308;28;20187;-69
2021/01/13 03:33:24;;;;;;;10.65;5.20;;;3.10;1.00;;;;;;5074020;28;20171;-68
2021/01/13 03:36:00;;;;;;;15.17;5.40;;;3.20;1.00;;;;;;5074004;28;20251;-69
2021/01/13 03:38:30;;;;;;;17.58;7.10;;;3.00;1.00;;;;;;5074514;28;20231;-69
2021/01/13 03:41:03;;;;;;;9.32;4.93;;;3.10;1.00;;;;;;5072510;28;20291;-69
2021/01/13 03:43:38;;;;;;;13.10;6.50;;;3.20;1.00;;;;;;5074144;28;20203;-68
2021/01/13 03:46:12;;;;;;;13.30;5.85;;;3.30;1.00;;;;;;5073772;28;20494;-69
2021/01/13 03:48:47;;;;;;;14.68;6.63;;;3.30;99.90;;;;;;5073611;28;20183;-67
2021/01/13 03:51:25;;;;;;;13.00;7.28;;;3.10;99.90;;;;;;5073544;28;20186;-70
2021/01/13 03:53:52;;;;;;;12.48;6.97;;;3.20;99.90;;;;;;5074168;28;20634;-69
2021/01/13 03:56:26;;;;;;;19.92;6.20;;;3.10;1.00;;;;;;5073572;28;20179;-69
2021/01/13 03:58:52;;;;;;;11.30;5.70;;;3.20;1.00;;;;;;5073790;28;20235;-69
2021/01/13 04:01:24;;;;;;;8.15;6.15;;;3.00;1.00;;;;;;5073669;28;20263;-69
2021/01/13 04:04:08;;;;;;;11.13;5.60;;;3.00;1.00;;;;;;5073735;28;20192;-69
2021/01/13 04:06:43;;;;;;;9.35;5.90;;;3.00;1.00;;;;;;5073650;28;20163;-69
2021/01/13 04:09:11;;;;;;;11.00;6.18;;;2.90;1.00;;;;;;5073976;28;20191;-68
2021/01/13 04:11:37;;;;;;;12.35;6.50;;;2.90;1.00;;;;;;5073234;28;20172;-69
2021/01/13 04:14:04;;;;;;;7.95;5.90;;;2.80;1.00;;;;;;5073468;28;20497;-69
2021/01/13 04:16:36;;;;;;;12.25;6.20;;;2.80;99.90;;;;;;5072839;28;20251;-69
2021/01/13 04:19:03;;;;;;;16.33;6.03;;;2.80;99.90;;;;;;5073237;28;20227;-69
2021/01/13 04:21:28;;;;;;;22.90;6.53;;;3.00;1.00;;;;;;5073058;28;20172;-69
2021/01/13 04:23:59;;;;;;;13.30;7.23;;;3.00;90.00;;;;;;5073040;28;20219;-69
2021/01/13 04:26:26;;;;;;;9.68;5.45;;;2.90;1.00;;;;;;5073044;28;20414;-70
2021/01/13 04:28:52;;;;;;;10.13;5.32;;;3.00;99.90;;;;;;5073028;28;20182;-70
2021/01/13 04:31:17;;;;;;;17.13;7.47;;;3.20;1.00;;;;;;5073173;28;20168;-68
2021/01/13 04:33:44;;;;;;;14.00;7.43;;;3.00;1.00;;;;;;5072789;28;20385;-68
2021/01/13 04:36:10;;;;;;;12.70;6.53;;;3.00;1.00;;;;;;5072771;28;20381;-67
2021/01/13 04:38:36;;;;;;;14.90;5.75;;;3.20;1.00;;;;;;5072844;28;20271;-68
2021/01/13 04:41:18;;;;;;;16.03;7.13;;;3.30;99.90;;;;;;5072708;28;20219;-68
2021/01/13 04:43:53;;;;;;;16.48;6.32;;;3.30;99.90;;;;;;5072726;28;20803;-69
2021/01/13 04:46:39;;;;;;;11.60;6.13;;;3.00;1.00;;;;;;5072836;28;20152;-68
2021/01/13 04:49:16;;;;;;;11.90;6.90;;;2.90;1.00;;;;;;5071371;28;20231;-68
2021/01/13 04:51:43;;;;;;;22.10;7.20;;;2.90;1.00;;;;;;5072836;28;20542;-68
2021/01/13 04:54:11;;;;;;;11.73;6.25;;;3.00;1.00;;;;;;5072723;28;20225;-69
2021/01/13 04:56:55;;;;;;;12.30;7.25;;;3.20;1.00;;;;;;5072753;28;20164;-68
2021/01/13 04:59:20;;;;;;;13.85;8.27;;;3.10;1.00;;;;;;5072663;28;20248;-69
2021/01/13 05:02:05;;;;;;;12.83;6.60;;;3.10;1.00;;;;;;5072658;28;20195;-68
2021/01/13 05:04:59;;;;;;;13.63;7.03;;;3.50;1.00;;;;;;5072540;28;20176;-69
2021/01/13 05:07:37;;;;;;;13.77;7.45;;;3.10;99.90;;;;;;5073357;28;20160;-68
2021/01/13 05:10:15;;;;;;;18.17;7.38;;;3.10;1.00;;;;;;5072569;28;20611;-68
2021/01/13 05:12:55;;;;;;;19.40;6.80;;;3.20;1.00;;;;;;5072693;28;20165;-68
2021/01/13 05:15:28;;;;;;;13.75;7.10;;;3.40;1.00;;;;;;5072694;28;20160;-69
2021/01/13 05:18:04;;;;;;;13.80;6.70;;;3.50;99.90;;;;;;5072944;28;20168;-69
2021/01/13 05:20:35;;;;;;;11.93;6.40;;;3.50;99.90;;;;;;5072395;28;20191;-68
2021/01/13 05:23:01;;;;;;;14.13;6.60;;;3.40;99.90;;;;;;5072436;28;20269;-68
2021/01/13 05:25:49;;;;;;;8.65;6.75;;;3.60;1.00;;;;;;5072415;28;20168;-69
2021/01/13 05:28:25;;;;;;;14.82;7.57;;;3.30;99.90;;;;;;5075205;28;20508;-68
2021/01/13 05:30:52;;;;;;;16.67;7.43;;;3.40;1.00;;;;;;5076391;28;20191;-68
2021/01/13 05:33:21;;;;;;;12.88;7.75;;;3.30;1.00;;;;;;5076297;28;20163;-68
2021/01/13 05:35:52;;;;;;;16.77;7.45;;;3.30;1.00;;;;;;5076141;28;20171;-68
2021/01/13 05:38:45;;;;;;;15.00;7.05;;;3.70;1.00;;;;;;5076106;28;20259;-68
2021/01/13 05:41:14;;;;;;;19.65;8.93;;;3.70;99.90;;;;;;5076638;28;20652;-69
2021/01/13 05:43:47;;;;;;;17.48;7.22;;;3.70;99.90;;;;;;5076488;28;20286;-68
2021/01/13 05:46:15;;;;;;;11.60;6.55;;;3.70;99.90;;;;;;5076729;28;20582;-68
2021/01/13 05:48:41;;;;;;;19.35;8.10;;;3.90;99.90;;;;;;5075928;28;20219;-68
2021/01/13 05:51:08;;;;;;;12.10;7.70;;;3.70;99.90;;;;;;5076198;28;20642;-68
2021/01/13 05:53:34;;;;;;;20.42;8.23;;;3.70;99.90;;;;;;5075738;28;20259;-68
2021/01/13 05:56:03;;;;;;;19.95;7.85;;;3.40;1.00;;;;;;5076016;28;20218;-69
2021/01/13 05:58:30;;;;;;;13.95;7.75;;;3.50;1.00;;;;;;5075810;28;20168;-69
2021/01/13 06:00:57;;;;;;;17.33;7.00;;;3.60;99.90;;;;;;5075555;28;20192;-68
2021/01/13 06:03:29;;;;;;;12.60;7.40;;;3.80;1.00;;;;;;5075278;28;20188;-69
2021/01/13 06:06:04;;;;;;;12.60;8.00;;;3.90;99.90;;;;;;5075380;28;20283;-69
2021/01/13 06:08:37;;;;;;;19.20;8.60;;;4.00;99.90;;;;;;5075823;28;20687;-69
2021/01/13 06:11:03;;;;;;;10.70;6.95;;;3.90;99.90;;;;;;5075329;28;20192;-68
2021/01/13 06:13:31;;;;;;;26.77;9.18;;;3.90;99.90;;;;;;5075906;28;20203;-69
2021/01/13 06:16:02;;;;;;;14.52;7.75;;;4.00;99.90;;;;;;5075422;28;20579;-69
2021/01/13 06:18:30;;;;;;;16.45;8.35;;;4.10;99.90;;;;;;5075690;28;20191;-69
2021/01/13 06:20:57;;;;;;;15.68;7.75;;;4.10;99.90;;;;;;5075281;28;20734;-68
2021/01/13 06:23:26;;;;;;;15.13;8.38;;;4.10;99.90;;;;;;5075123;28;20785;-69
2021/01/13 06:25:53;;;;;;;15.13;7.60;;;4.00;99.90;;;;;;5075283;28;20168;-69
2021/01/13 06:28:26;;;;;;;16.83;8.55;;;4.10;99.90;;;;;;5075270;28;20164;-69
2021/01/13 06:31:14;;;;;;;14.13;9.10;;;3.90;99.90;;;;;;5073746;28;20199;-68
2021/01/13 06:33:59;;;;;;;20.30;8.80;;;3.80;99.90;;;;;;5075626;28;20229;-69
2021/01/13 06:36:42;;;;;;;23.02;9.02;;;3.60;1.00;;;;;;5075096;28;20164;-69
2021/01/13 06:39:09;;;;;;;19.13;9.35;;;3.80;1.00;;;;;;5074549;28;20196;-68
2021/01/13 06:41:47;;;;;;;26.90;9.18;;;3.80;1.00;;;;;;5075070;28;20164;-70
2021/01/13 06:44:13;;;;;;;13.55;8.48;;;3.70;1.00;;;;;;5075164;28;20278;-69
2021/01/13 06:46:39;;;;;;;14.43;9.02;;;3.80;1.00;;;;;;5074769;28;20156;-68
2021/01/13 06:49:20;;;;;;;12.03;6.37;;;4.00;1.00;;;;;;5075029;28;20261;-68
2021/01/13 06:51:51;;;;;;;18.00;7.80;;;3.80;1.00;;;;;;5074900;28;20156;-69
2021/01/13 06:54:19;;;;;;;15.75;7.75;;;3.80;1.00;;;;;;5074811;28;20188;-69
2021/01/13 06:56:48;;;;;;;14.32;7.07;;;3.90;1.00;;;;;;5074591;28;20168;-68
2021/01/13 06:59:15;;;;;;;11.38;6.25;;;3.80;1.00;;;;;;5074448;28;20561;-68
2021/01/13 07:01:48;;;;;;;19.58;7.55;;;3.60;1.00;;;;;;5074563;28;20533;-69
2021/01/13 07:04:14;;;;;;;38.55;12.60;;;3.70;99.90;;;;;;5074460;28;20214;-69
2021/01/13 07:06:40;;;;;;;12.00;6.50;;;3.80;1.00;;;;;;5074379;28;20168;-69
2021/01/13 07:09:05;;;;;;;12.47;7.37;;;3.90;1.00;;;;;;5074229;28;20196;-68
2021/01/13 07:11:38;;;;;;;15.07;7.40;;;3.80;99.90;;;;;;5074455;28;20247;-69
2021/01/13 07:14:05;;;;;;;20.27;7.18;;;3.90;1.00;;;;;;5074521;28;20229;-69
2021/01/13 07:16:30;;;;;;;15.75;7.05;;;3.90;1.00;;;;;;5074251;28;20179;-69
2021/01/13 07:18:57;;;;;;;13.17;7.20;;;3.90;1.00;;;;;;5074189;28;20168;-68
2021/01/13 07:21:39;;;;;;;10.25;7.75;;;4.00;1.00;;;;;;5074393;28;20406;-68
2021/01/13 07:24:12;;;;;;;13.23;6.35;;;4.10;99.90;;;;;;5074318;28;20194;-69
2021/01/13 07:26:40;;;;;;;16.05;6.20;;;4.00;1.00;;;;;;5074122;28;20168;-68
2021/01/13 07:29:05;;;;;;;13.68;7.15;;;4.00;99.90;;;;;;5073742;28;20192;-69
2021/01/13 07:31:33;;;;;;;29.00;7.07;;;4.00;1.00;;;;;;5074009;28;20172;-69
2021/01/13 07:34:07;;;;;;;12.38;7.80;;;3.80;99.90;;;;;;5074011;28;20424;-69
2021/01/13 07:36:37;;;;;;;17.45;6.60;;;3.80;1.00;;;;;;5074240;28;20156;-69
2021/01/13 07:39:05;;;;;;;13.98;6.22;;;4.10;99.90;;;;;;5073752;28;20188;-69
2021/01/13 07:42:21;;;;;;;20.00;7.20;;;3.60;1.00;;;;;;5072397;28;20660;-69
2021/01/13 07:45:02;;;;;;;13.20;7.32;;;3.90;1.00;;;;;;5072321;28;20176;-68
2021/01/13 07:47:57;;;;;;;23.60;7.50;;;3.70;99.90;;;;;;5073739;28;20144;-69
2021/01/13 07:50:23;;;;;;;14.15;6.78;;;3.90;1.00;;;;;;5055196;28;20207;-68
2021/01/13 07:52:50;;;;;;;32.13;11.15;;;3.70;1.00;;;;;;5073848;28;20184;-69
2021/01/13 07:55:21;;;;;;;12.23;7.00;;;3.70;1.00;;;;;;5073622;28;20560;-69
2021/01/13 07:57:51;;;;;;;15.38;7.15;;;3.90;1.00;;;;;;5073906;28;20160;-69
2021/01/13 08:00:46;;;;;;;18.60;6.97;;;3.50;1.00;;;;;;5073831;28;20180;-69
2021/01/13 08:03:36;;;;;;;13.02;8.00;;;3.50;1.00;;;;;;5073486;28;20227;-69
2021/01/13 08:06:28;;;;;;;19.38;7.95;;;3.70;1.00;;;;;;5073294;28;20160;-69
2021/01/13 08:09:07;;;;;;;17.70;8.07;;;3.80;1.00;;;;;;5073453;28;20164;-69
2021/01/13 08:12:00;;;;;;;10.95;6.10;;;3.80;99.90;;;;;;5072985;28;20285;-68
2021/01/13 08:15:03;;;;;;;14.95;7.03;;;3.70;1.00;;;;;;5073460;28;20502;-69
2021/01/13 08:18:12;;;;;;;20.45;8.02;;;3.70;99.90;;;;;;5073350;28;20198;-69
2021/01/13 08:21:13;;;;;;;19.15;8.13;;;3.50;1.00;;;;;;5073037;28;20184;-68
2021/01/13 08:23:51;;;;;;;14.48;8.02;;;3.80;1.00;;;;;;5073062;28;20206;-69
2021/01/13 08:26:18;;;;;;;18.70;8.05;;;3.70;99.90;;;;;;5073033;28;20278;-69
2021/01/13 08:28:48;;;;;;;21.50;7.55;;;3.70;1.00;;;;;;5073088;28;20247;-69
2021/01/13 08:31:22;;;;;;;19.80;8.40;;;3.70;1.00;;;;;;5073224;28;20163;-69
2021/01/13 08:34:01;;;;;;;18.10;9.05;;;3.80;1.00;;;;;;5073007;28;20176;-69
2021/01/13 08:36:28;;;;;;;20.27;8.60;;;3.80;99.90;;;;;;5072906;28;20549;-67
2021/01/13 08:39:11;;;;;;;10.50;7.78;;;3.60;1.00;;;;;;5072676;28;20713;-67
2021/01/13 08:41:37;;;;;;;17.40;7.68;;;3.60;1.00;;;;;;5073010;28;20534;-70
2021/01/13 08:44:07;;;;;;;14.30;7.10;;;3.40;1.00;;;;;;5072687;28;20199;-68
2021/01/13 08:46:46;;;;;;;17.67;8.05;;;3.40;1.00;;;;;;5072747;28;20160;-68
2021/01/13 08:49:23;;;;;;;16.25;7.82;;;3.60;1.00;;;;;;5072334;28;20200;-67
2021/01/13 08:52:23;;;;;;;13.43;7.45;;;3.40;1.00;;;;;;5072471;28;20164;-68
2021/01/13 08:54:48;;;;;;;14.98;7.88;;;3.40;99.90;;;;;;5072947;28;20161;-68
2021/01/13 08:57:15;;;;;;;13.10;8.90;;;3.40;1.00;;;;;;5072400;28;20201;-68
2021/01/13 08:59:46;;;;;;;16.08;7.32;;;3.40;1.00;;;;;;5072260;28;20188;-68
2021/01/13 09:02:16;;;;;;;13.48;6.90;;;3.60;1.00;;;;;;5072157;28;20165;-67
2021/01/13 09:04:54;;;;;;;11.48;9.13;;;3.90;1.00;;;;;;5072180;28;20213;-70
2021/01/13 09:07:26;;;;;;;12.27;7.93;;;3.90;1.00;;;;;;5071979;28;20163;-68
2021/01/13 09:10:07;;;;;;;14.55;7.72;;;3.80;99.90;;;;;;5072145;28;20675;-68
2021/01/13 09:12:36;;;;;;;18.58;6.53;;;3.60;1.00;;;;;;5071877;28;20680;-68
2021/01/13 09:15:26;;;;;;;15.13;7.72;;;3.90;99.90;;;;;;5072262;28;20194;-69
2021/01/13 09:17:58;;;;;;;14.52;7.32;;;3.70;1.00;;;;;;5066386;28;20191;-68
2021/01/13 09:20:28;;;;;;;28.42;7.80;;;3.90;1.00;;;;;;5072427;28;20275;-68
2021/01/13 09:23:04;;;;;;;18.40;7.93;;;3.80;1.00;;;;;;5072250;28;20187;-69
2021/01/13 09:25:47;;;;;;;19.67;7.53;;;4.30;99.90;;;;;;5072644;28;20148;-68
2021/01/13 09:28:18;;;;;;;19.20;8.02;;;4.30;99.90;;;;;;5072182;28;20153;-68
2021/01/13 09:30:44;;;;;;;11.32;6.68;;;4.00;99.90;;;;;;5072328;28;20180;-68
2021/01/13 09:33:20;;;;;;;20.83;7.45;;;4.20;1.00;;;;;;5072249;28;20179;-68
2021/01/13 09:35:47;;;;;;;19.10;7.80;;;4.30;99.90;;;;;;5072227;28;20184;-68
2021/01/13 09:38:14;;;;;;;18.85;7.57;;;4.50;99.90;;;;;;5072227;28;20168;-68
2021/01/13 09:40:59;;;;;;;25.25;7.95;;;4.70;99.90;;;;;;5071998;28;20195;-67
2021/01/13 09:43:35;;;;;;;15.27;6.70;;;4.50;99.90;;;;;;5070490;28;20275;-67
2021/01/13 09:46:22;;;;;;;16.08;7.85;;;4.40;99.90;;;;;;5073020;28;20623;-67
2021/01/13 09:49:09;;;;;;;10.70;6.70;;;4.70;99.90;;;;;;5072087;28;20180;-67
2021/01/13 09:51:39;;;;;;;15.23;6.28;;;4.70;99.90;;;;;;5072135;28;20164;-67
2021/01/13 09:54:07;;;;;;;14.13;7.85;;;4.70;99.90;;;;;;5072227;28;20179;-67
2021/01/13 09:56:35;;;;;;;12.73;6.70;;;4.80;99.90;;;;;;5071990;28;20671;-67
2021/01/13 09:59:04;;;;;;;9.07;5.97;;;5.00;99.90;;;;;;5071861;28;20178;-67
2021/01/13 10:01:32;;;;;;;10.55;5.10;;;5.10;99.90;;;;;;5071812;28;20176;-67
2021/01/13 10:04:01;;;;;;;14.25;5.80;;;4.80;99.90;;;;;;5070523;28;20196;-68
2021/01/13 10:06:31;;;;;;;16.42;7.57;;;4.70;99.90;;;;;;5071913;28;20217;-68
2021/01/13 10:08:58;;;;;;;13.23;6.38;;;4.70;99.90;;;;;;5072171;28;20221;-68
2021/01/13 10:11:26;;;;;;;10.63;5.63;;;4.80;99.90;;;;;;5072060;28;20165;-67
2021/01/13 10:14:03;;;;;;;12.73;6.10;;;4.80;99.90;;;;;;5073709;28;20641;-68
2021/01/13 10:16:29;;;;;;;15.88;6.63;;;5.00;99.90;;;;;;5075400;28;20180;-68
2021/01/13 10:18:57;;;;;;;15.07;6.38;;;5.10;99.90;;;;;;5075700;28;20204;-67
2021/01/13 10:21:24;;;;;;;25.73;7.68;;;4.90;99.90;;;;;;5075703;28;20263;-66
2021/01/13 10:23:52;;;;;;;14.93;6.47;;;5.00;99.90;;;;;;5074124;28;20195;-67
2021/01/13 10:26:18;;;;;;;9.57;6.07;;;4.70;99.90;;;;;;5073904;28;20168;-67
2021/01/13 10:28:45;;;;;;;14.20;7.13;;;4.80;99.90;;;;;;5075399;28;20656;-66
2021/01/13 10:31:23;;;;;;;13.98;7.35;;;4.80;99.90;;;;;;5075407;28;20168;-67
2021/01/13 10:33:53;;;;;;;10.63;7.10;;;4.80;99.90;;;;;;5075635;28;20636;-67
2021/01/13 10:36:34;;;;;;;15.57;7.80;;;5.10;99.90;;;;;;5075204;28;20180;-67
2021/01/13 10:39:15;;;;;;;15.85;7.78;;;5.10;99.90;;;;;;5075004;28;20255;-67
2021/01/13 10:41:51;;;;;;;47.15;8.75;;;5.00;99.90;;;;;;5075293;28;20494;-67
2021/01/13 10:44:18;;;;;;;16.02;6.30;;;4.80;99.90;;;;;;5074970;28;20594;-67
2021/01/13 10:46:44;;;;;;;19.77;6.72;;;4.60;99.90;;;;;;5074783;28;20160;-67
2021/01/13 10:49:26;;;;;;;10.50;5.57;;;4.80;99.90;;;;;;5075073;28;20203;-67
2021/01/13 10:51:54;;;;;;;9.32;5.50;;;5.00;99.90;;;;;;5075675;28;20160;-68
2021/01/13 10:54:22;;;;;;;23.27;8.20;;;5.10;99.90;;;;;;5075110;28;20172;-67
2021/01/13 10:56:52;;;;;;;13.40;5.50;;;5.30;99.90;;;;;;5074748;28;20278;-67
2021/01/13 10:59:18;;;;;;;10.50;6.78;;;5.00;99.90;;;;;;5074402;28;20192;-67
2021/01/13 11:01:49;;;;;;;9.57;5.60;;;5.10;99.90;;;;;;5074732;28;20489;-68
2021/01/13 11:04:22;;;;;;;14.40;7.03;;;4.90;99.90;;;;;;5074552;28;20210;-66
2021/01/13 11:06:53;;;;;;;13.00;5.45;;;5.20;99.90;;;;;;5074780;28;20521;-68
2021/01/13 11:09:21;;;;;;;9.63;6.22;;;5.00;99.90;;;;;;5074415;28;20184;-68
2021/01/13 11:11:47;;;;;;;13.75;6.45;;;5.00;99.90;;;;;;5074259;28;20570;-66
2021/01/13 11:14:12;;;;;;;11.73;5.68;;;4.70;99.90;;;;;;5074355;28;20335;-67
2021/01/13 11:17:05;;;;;;;15.17;6.50;;;4.80;99.90;;;;;;5074070;28;20200;-67
2021/01/13 11:19:31;;;;;;;14.77;6.05;;;5.20;99.90;;;;;;5074481;28;20211;-66
2021/01/13 11:21:58;;;;;;;9.98;5.30;;;5.40;99.90;;;;;;5073995;28;20248;-67
2021/01/13 11:24:45;;;;;;;12.23;6.10;;;5.10;99.90;;;;;;5073661;28;20192;-67
2021/01/13 11:27:21;;;;;;;18.55;5.38;;;5.20;99.90;;;;;;5073628;28;20156;-65
2021/01/13 11:29:55;;;;;;;16.55;5.82;;;5.10;99.90;;;;;;5074543;28;20211;-67
2021/01/13 11:32:31;;;;;;;15.98;5.72;;;5.00;99.90;;;;;;5072508;28;20770;-68
2021/01/13 11:34:57;;;;;;;15.68;5.80;;;4.90;99.90;;;;;;5074297;28;20157;-67
2021/01/13 11:37:44;;;;;;;21.10;8.10;;;4.90;99.90;;;;;;5074232;28;20164;-67
2021/01/13 11:40:31;;;;;;;16.00;6.97;;;5.10;99.90;;;;;;5074030;28;20211;-68
2021/01/13 11:43:25;;;;;;;17.70;5.35;;;5.20;99.90;;;;;;5073970;28;20735;-67
2021/01/13 11:46:29;;;;;;;11.98;4.85;;;5.10;99.90;;;;;;5058753;28;20180;-68
2021/01/13 11:49:30;;;;;;;10.80;6.65;;;5.00;99.90;;;;;;5072955;28;20203;-67
2021/01/13 11:51:56;;;;;;;17.42;5.10;;;5.10;99.90;;;;;;5074080;28;20653;-67
2021/01/13 11:54:26;;;;;;;8.35;5.18;;;5.10;99.90;;;;;;5073848;28;20168;-67
2021/01/13 11:56:52;;;;;;;13.65;5.70;;;5.20;99.90;;;;;;5073855;28;20202;-67
2021/01/13 11:59:30;;;;;;;10.00;3.87;;;5.10;99.90;;;;;;5073571;28;20263;-67
2021/01/13 12:01:58;;;;;;;8.15;4.65;;;5.10;99.90;;;;;;5073883;28;20668;-67
2021/01/13 12:04:24;;;;;;;15.45;4.72;;;5.20;99.90;;;;;;5073976;28;20242;-67
2021/01/13 12:06:58;;;;;;;11.10;4.97;;;5.60;99.90;;;;;;5073691;28;20632;-67
2021/01/13 12:09:24;;;;;;;9.75;4.88;;;5.10;99.90;;;;;;5073409;28;20552;-67
2021/01/13 12:11:49;;;;;;;12.00;5.32;;;5.20;99.90;;;;;;5073438;28;20164;-67
2021/01/13 12:14:15;;;;;;;11.40;4.60;;;5.30;99.90;;;;;;5073330;28;20637;-67
2021/01/13 12:16:41;;;;;;;8.10;4.57;;;5.40;98.00;;;;;;5073183;28;20200;-67
2021/01/13 12:19:07;;;;;;;19.33;5.73;;;5.50;53.30;;;;;;5072805;28;20420;-68
2021/01/13 12:21:33;;;;;;;7.73;2.53;;;5.90;33.10;;;;;;5073208;28;20247;-68
2021/01/13 12:24:13;;;;;;;6.55;3.78;;;5.60;12.00;;;;;;5072907;28;20222;-67
2021/01/13 12:26:40;;;;;;;8.10;3.97;;;5.40;12.70;;;;;;5073164;28;20175;-68
2021/01/13 12:29:08;;;;;;;8.02;4.25;;;5.60;30.90;;;;;;5073444;28;20184;-68
2021/01/13 12:31:37;;;;;;;8.13;3.40;;;5.70;16.00;;;;;;5072718;28;20179;-67
2021/01/13 12:34:03;;;;;;;7.72;3.53;;;5.60;7.60;;;;;;5073292;28;20625;-67
2021/01/13 12:36:36;;;;;;;8.13;3.30;;;5.50;7.10;;;;;;5072928;28;20199;-67
2021/01/13 12:39:02;;;;;;;10.30;3.95;;;5.60;13.30;;;;;;5072937;28;20192;-67
2021/01/13 12:41:32;;;;;;;10.43;4.43;;;5.60;7.80;;;;;;5073047;28;20249;-67
2021/01/13 12:44:03;;;;;;;13.60;4.05;;;5.50;1.00;;;;;;5073077;28;20286;-67
2021/01/13 12:46:48;;;;;;;8.45;3.97;;;5.60;1.00;;;;;;5073279;28;20691;-66
2021/01/13 12:49:14;;;;;;;13.48;3.95;;;5.30;1.00;;;;;;5072442;28;20257;-68
2021/01/13 12:51:39;;;;;;;5.97;4.57;;;5.30;1.00;;;;;;5072604;28;20255;-66
2021/01/13 12:54:05;;;;;;;10.80;4.00;;;5.30;1.00;;;;;;5073043;28;20171;-66
2021/01/13 12:56:34;;;;;;;10.20;3.40;;;5.30;1.00;;;;;;5072958;28;20262;-66
2021/01/13 12:59:01;;;;;;;7.55;3.40;;;5.10;1.00;;;;;;5072628;28;20170;-67
2021/01/13 13:01:28;;;;;;;5.47;3.58;;;5.50;1.00;;;;;;5072731;28;20170;-68
2021/01/13 13:03:57;;;;;;;6.63;3.28;;;5.60;1.00;;;;;;5072435;28;20299;-67
2021/01/13 13:06:30;;;;;;;6.75;3.92;;;5.50;1.00;;;;;;5072912;28;20186;-67
2021/01/13 13:08:57;;;;;;;10.00;3.28;;;5.70;1.00;;;;;;5072308;28;20161;-68
2021/01/13 13:11:24;;;;;;;12.38;3.50;;;5.90;1.00;;;;;;5072348;28;20533;-67
2021/01/13 13:13:50;;;;;;;13.65;3.80;;;5.60;1.00;;;;;;5072235;28;20544;-68
2021/01/13 13:16:19;;;;;;;7.60;3.53;;;5.80;1.00;;;;;;5072818;28;20167;-67
2021/01/13 13:18:45;;;;;;;8.43;3.47;;;5.30;1.00;;;;;;5072107;28;20718;-67
2021/01/13 13:21:12;;;;;;;6.50;4.28;;;5.10;1.00;;;;;;5072295;28;20545;-68